TimeCOT,TemperatureF,Dew PointF,Humidity,Sea Level PressureIn,VisibilityMPH,Wind Direction,Wind SpeedMPH,Gust SpeedMPH,PrecipitationIn,Events,Conditions,WindDirDegrees,DateUTC
12:00 AM,48.2,46.4,93,30.29,6.2,NW,3.5,-,N/A,,Partly Cloudy,320,2012-12-04 05:00:00
1:00 AM,47,,,,11,NW,4.5,,,,Haze,320,2012-12-04 06:00:00
1:00 AM,46.4,44.6,93,30.29,6.2,NW,3.5,-,N/A,,Scattered Clouds,320,2012-12-04 06:00:00
2:00 AM,48.2,46.4,93,30.27,6.2,NW,3.5,-,N/A,Fog,Shallow Fog,320,2012-12-04 07:00:00
3:00 AM,46.4,44.6,93,30.26,6.2,Variable,2.3,-,N/A,Fog,Shallow Fog,0,2012-12-04 08:00:00
4:00 AM,45,44,96,,1,NW,4.5,,,Fog,Patches of Fog,320,2012-12-04 09:00:00
4:00 AM,44.6,44.6,100,30.26,6.2,NW,3.5,-,N/A,,Scattered Clouds,320,2012-12-04 09:00:00
5:00 AM,44.6,44.6,100,30.29,5.0,WNW,4.6,-,N/A,Fog,Fog,300,2012-12-04 10:00:00
5:28 AM,44.6,42.8,93,30.29,5.0,Variable,2.3,-,N/A,Fog,Fog,0,2012-12-04 10:28:00
6:00 AM,42.8,42.8,100,30.31,5.0,Variable,2.3,-,N/A,Fog,Fog,0,2012-12-04 11:00:00
7:00 AM,47,46,97,,11,NW,2.2,,,,Haze,320,2012-12-04 12:00:00
7:00 AM,46.4,46.4,100,30.33,6.2,Variable,2.3,-,N/A,,Partly Cloudy,0,2012-12-04 12:00:00
7:30 AM,51.8,50.0,94,30.35,6.2,NE,4.6,-,N/A,,Partly Cloudy,50,2012-12-04 12:30:00
8:00 AM,53.6,50.0,88,30.35,6.2,ENE,4.6,-,N/A,,Partly Cloudy,60,2012-12-04 13:00:00
9:00 AM,60.8,50.0,68,30.36,6.2,East,4.6,-,N/A,,Partly Cloudy,100,2012-12-04 14:00:00
10:00 AM,63,48,48,,11,East,6.7,,,,Haze,80,2012-12-04 15:00:00
10:00 AM,62.6,48.2,59,30.35,6.2,East,6.9,-,N/A,,Partly Cloudy,80,2012-12-04 15:00:00
11:00 AM,66.2,48.2,52,30.33,6.2,ESE,4.6,-,N/A,,Scattered Clouds,120,2012-12-04 16:00:00
12:00 PM,68.0,48.2,49,30.30,6.2,NW,9.2,-,N/A,,Scattered Clouds,310,2012-12-04 17:00:00
1:00 PM,66,52,51,,11,NW,11.2,,,,Haze,310,2012-12-04 18:00:00
1:00 PM,66.2,51.8,60,30.28,6.2,NW,11.5,-,N/A,,Scattered Clouds,310,2012-12-04 18:00:00
2:00 PM,68.0,53.6,60,30.24,6.2,NW,11.5,-,N/A,,Mostly Cloudy,310,2012-12-04 19:00:00
3:00 PM,66.2,53.6,64,30.22,6.2,WNW,12.7,-,N/A,,Mostly Cloudy,300,2012-12-04 20:00:00
4:00 PM,64,53,58,,11,WSW,13.4,,,,Haze,240,2012-12-04 21:00:00
4:00 PM,64.4,53.6,68,30.23,6.2,WSW,13.8,-,N/A,,Scattered Clouds,240,2012-12-04 21:00:00
5:00 PM,59.0,53.6,82,30.25,6.2,WNW,90.9,-,N/A,,Mostly Cloudy,300,2012-12-04 22:00:00
6:00 PM,59.0,53.6,82,30.25,6.2,WNW,80.6,-,N/A,,Mostly Cloudy,300,2012-12-04 23:00:00
7:00 PM,58,53,77,,9,WNW,4.5,,,,Overcast,300,2012-12-05 00:00:00
7:00 PM,57.2,53.6,88,30.27,6.2,WNW,4.6,-,N/A,,Mostly Cloudy,300,2012-12-05 00:00:00
7:30 PM,57.2,51.8,82,30.29,6.2,NNE,3.5,-,N/A,,Drizzle,30,2012-12-05 00:30:00
8:00 PM,57.2,51.8,82,30.30,6.2,NNE,3.5,-,N/A,,Light Drizzle,30,2012-12-05 01:00:00
9:00 PM,57.2,51.8,82,30.32,6.2,West,4.6,-,N/A,,Mostly Cloudy,270,2012-12-05 02:00:00
10:00 PM,54,50,83,,9,WNW,6.7,,,,Partly Cloudy,300,2012-12-05 03:00:00
10:00 PM,53.6,50.0,88,30.34,6.2,WNW,6.9,-,N/A,,Scattered Clouds,300,2012-12-05 03:00:00
11:00 PM,51.8,50.0,94,30.34,6.2,NNW,3.5,-,N/A,,Mostly Cloudy,340,2012-12-05 04:00:00